createdAt,value
2018-05-25T00:00:52.816Z,9.10
2018-05-25T00:03:20.685Z,9.33
2018-05-25T00:05:48.551Z,10.90
2018-05-25T00:08:16.418Z,10.90
2018-05-25T00:10:44.286Z,11.23
2018-05-25T00:13:12.159Z,10.17
2018-05-25T00:15:40.020Z,10.13
2018-05-25T00:18:07.888Z,11.40
2018-05-25T00:20:35.754Z,10.93
2018-05-25T00:23:03.622Z,11.00
2018-05-25T00:25:31.418Z,11.57
2018-05-25T00:27:59.970Z,12.17
2018-05-25T00:30:27.837Z,12.53
2018-05-25T00:32:56.526Z,13.63
2018-05-25T00:35:24.330Z,13.40
2018-05-25T00:37:52.974Z,12.87
2018-05-25T00:40:20.840Z,13.77
2018-05-25T00:42:48.709Z,13.67
2018-05-25T00:45:16.576Z,15.07
2018-05-25T00:47:44.443Z,16.77
2018-05-25T00:50:12.720Z,14.80
2018-05-25T00:52:40.483Z,15.07
2018-05-25T00:55:20.231Z,16.20
2018-05-25T00:57:48.097Z,15.80
2018-05-25T01:00:15.965Z,16.43
2018-05-25T01:02:43.835Z,17.10
2018-05-25T01:05:11.702Z,17.37
2018-05-25T01:07:39.568Z,18.30
2018-05-25T01:10:07.645Z,17.50
2018-05-25T01:12:35.548Z,17.43
2018-05-25T01:15:04.296Z,17.00
2018-05-25T01:17:32.162Z,18.97
2018-05-25T01:20:00.131Z,18.03
2018-05-25T01:22:28.204Z,18.57
2018-05-25T01:24:56.072Z,18.67
2018-05-25T01:27:23.937Z,20.53
2018-05-25T01:29:51.806Z,18.47
2018-05-25T01:32:19.572Z,20.17
2018-05-25T01:34:47.438Z,20.87
2018-05-25T01:37:15.306Z,21.87
2018-05-25T01:39:43.170Z,19.60
2018-05-25T01:42:11.244Z,22.60
2018-05-25T01:44:39.213Z,22.40
2018-05-25T01:47:06.911Z,22.27
2018-05-25T01:49:35.562Z,22.23
2018-05-25T01:52:03.429Z,21.87
2018-05-25T01:54:31.297Z,23.33
2018-05-25T01:56:59.164Z,21.63
2018-05-25T01:59:27.460Z,21.10
2018-05-25T02:01:56.025Z,21.40
2018-05-25T02:04:23.993Z,22.33
2018-05-25T02:06:51.864Z,23.77
2018-05-25T02:09:19.730Z,24.47
2018-05-25T02:11:47.604Z,22.80
2018-05-25T02:14:15.462Z,22.00
2018-05-25T02:16:43.333Z,21.37
2018-05-25T02:19:11.197Z,23.67
2018-05-25T02:21:39.272Z,23.23
2018-05-25T02:24:07.140Z,21.50
2018-05-25T02:26:35.004Z,24.67
2018-05-25T02:29:02.871Z,24.77
2018-05-25T02:31:30.739Z,25.77
2018-05-25T02:33:58.540Z,26.17
2018-05-25T02:36:27.191Z,24.33
2018-05-25T02:38:55.064Z,25.83
2018-05-25T02:41:22.925Z,24.10
2018-05-25T02:43:50.793Z,25.10
2018-05-25T02:46:18.593Z,24.70
2018-05-25T02:48:47.244Z,25.17
2018-05-25T02:51:15.113Z,23.00
2018-05-25T02:53:43.389Z,25.17
2018-05-25T02:56:11.260Z,26.10
2018-05-25T02:58:39.123Z,25.10
2018-05-25T03:01:07.502Z,25.23
2018-05-25T03:03:35.372Z,24.87
2018-05-25T03:06:03.239Z,26.63
2018-05-25T03:08:31.105Z,26.40
2018-05-25T03:10:58.971Z,25.03
2018-05-25T03:13:26.838Z,25.70
2018-05-25T03:15:54.707Z,27.33
2018-05-25T03:18:22.572Z,25.40
2018-05-25T03:20:50.338Z,26.30
2018-05-25T03:23:18.205Z,28.10
2018-05-25T03:25:46.074Z,26.03
2018-05-25T03:28:13.937Z,26.50
2018-05-25T03:30:41.806Z,25.77
2018-05-25T03:33:09.676Z,27.57
2018-05-25T03:35:37.541Z,26.60
2018-05-25T03:38:06.228Z,27.73
2018-05-25T03:40:34.094Z,27.63
2018-05-25T03:43:01.962Z,27.00
2018-05-25T03:45:29.829Z,28.47
2018-05-25T03:47:57.697Z,25.80
2018-05-25T03:50:25.564Z,26.97
2018-05-25T03:52:53.636Z,28.47
2018-05-25T03:55:21.508Z,28.90
2018-05-25T03:57:49.371Z,28.57
2018-05-25T04:00:29.117Z,28.23
2018-05-25T04:02:56.985Z,27.50
2018-05-25T04:05:24.850Z,28.23
2018-05-25T04:07:52.723Z,27.73
2018-05-25T04:10:20.791Z,25.83
2018-05-25T04:12:53.455Z,27.63
2018-05-25T04:15:21.746Z,29.80
2018-05-25T04:17:49.613Z,25.57
2018-05-25T04:20:17.380Z,26.60
2018-05-25T04:22:45.246Z,26.43
2018-05-25T04:25:14.524Z,27.00
2018-05-25T04:27:42.518Z,28.10
2018-05-25T04:30:10.383Z,26.83
2018-05-25T04:32:38.250Z,27.10
2018-05-25T04:35:06.118Z,29.87
2018-05-25T04:37:33.986Z,29.20
2018-05-25T04:40:01.853Z,30.67
2018-05-25T04:42:29.720Z,28.27
2018-05-25T04:44:57.588Z,26.10
2018-05-25T04:47:25.455Z,28.87
2018-05-25T04:49:53.322Z,28.90
2018-05-25T04:52:21.237Z,28.20
2018-05-25T04:54:49.875Z,29.00
2018-05-25T04:57:17.742Z,28.80
2018-05-25T04:59:45.609Z,31.37
2018-05-25T05:02:13.682Z,26.70
2018-05-25T05:04:41.551Z,27.37
2018-05-25T05:07:09.417Z,27.53
2018-05-25T05:09:37.284Z,26.93
2018-05-25T05:12:05.152Z,26.67
2018-05-25T05:14:33.019Z,25.77
2018-05-25T05:17:01.091Z,26.10
2018-05-25T05:19:28.959Z,25.97
2018-05-25T05:21:56.825Z,26.10
2018-05-25T05:24:24.692Z,24.20
2018-05-25T05:26:52.560Z,25.87
2018-05-25T05:29:20.428Z,24.60
2018-05-25T05:31:48.192Z,27.10
2018-05-25T05:34:16.164Z,25.00
2018-05-25T05:36:44.031Z,25.40
2018-05-25T05:39:11.900Z,24.70
2018-05-25T05:41:39.764Z,23.77
2018-05-25T05:44:07.630Z,23.13
2018-05-25T05:46:35.497Z,25.10
2018-05-25T05:49:03.368Z,22.80
2018-05-25T05:51:32.275Z,25.13
2018-05-25T05:53:59.992Z,22.60
2018-05-25T05:56:27.694Z,25.30
2018-05-25T05:58:55.454Z,22.67
2018-05-25T06:01:23.172Z,22.77
2018-05-25T06:03:50.937Z,24.00
2018-05-25T06:08:52.715Z,23.30
2018-05-25T06:11:20.418Z,22.57
2018-05-25T06:13:48.128Z,23.37
2018-05-25T06:16:15.883Z,21.93
2018-05-25T06:18:44.360Z,21.30
2018-05-25T06:21:12.876Z,21.90
2018-05-25T06:23:40.578Z,20.60
2018-05-25T06:26:08.325Z,22.00
2018-05-25T06:28:36.080Z,22.10
2018-05-25T06:31:04.257Z,21.60
2018-05-25T06:33:31.968Z,22.00
2018-05-25T06:36:00.443Z,19.47
2018-05-25T06:38:28.188Z,20.00
2018-05-25T06:40:55.935Z,18.67
2018-05-25T06:43:23.716Z,18.00
2018-05-25T06:45:51.462Z,18.37
2018-05-25T06:48:19.336Z,18.00
2018-05-25T06:50:47.076Z,17.57
2018-05-25T06:53:14.780Z,17.27
2018-05-25T06:55:42.529Z,15.33
2018-05-25T06:58:10.283Z,16.30
2018-05-25T07:00:38.132Z,13.47
2018-05-25T07:03:05.844Z,14.77
2018-05-25T07:05:33.547Z,13.23
2018-05-25T07:08:02.093Z,12.87
2018-05-25T07:10:29.803Z,12.40
2018-05-25T07:12:57.513Z,12.43
2018-05-25T07:15:25.375Z,10.00
2018-05-25T07:17:53.087Z,10.40
2018-05-25T07:20:21.591Z,10.30
2018-05-25T07:22:49.326Z,10.70
2018-05-25T07:25:18.312Z,10.20
2018-05-25T07:27:46.800Z,9.03
2018-05-25T07:30:15.281Z,9.47
2018-05-25T07:32:43.914Z,9.27
2018-05-25T07:35:12.401Z,9.40
2018-05-25T07:37:40.100Z,8.93
2018-05-25T07:40:09.005Z,9.00
2018-05-25T07:42:37.484Z,8.50
2018-05-25T07:45:05.956Z,8.17
2018-05-25T07:47:34.457Z,8.70
2018-05-25T07:50:03.063Z,8.23
2018-05-25T07:52:30.764Z,8.63
2018-05-25T07:54:58.488Z,8.23
2018-05-25T07:57:26.736Z,8.10
2018-05-25T07:59:55.221Z,7.93
2018-05-25T08:02:23.695Z,7.87
2018-05-25T08:04:52.206Z,7.40
2018-05-25T08:07:19.915Z,7.30
2018-05-25T08:09:47.643Z,8.13
2018-05-25T08:12:15.484Z,8.13
2018-05-25T08:14:43.961Z,7.50
2018-05-25T08:17:12.447Z,7.60
2018-05-25T08:19:40.972Z,7.20
2018-05-25T08:22:08.673Z,6.37
2018-05-25T08:24:36.360Z,7.90
2018-05-25T08:27:04.105Z,6.37
2018-05-25T08:29:32.584Z,6.67
2018-05-25T08:32:01.090Z,6.90
2018-05-25T08:34:28.852Z,6.93
2018-05-25T08:36:56.594Z,7.77
2018-05-25T08:39:24.309Z,7.73
2018-05-25T08:41:52.009Z,7.30
2018-05-25T08:44:19.740Z,8.10
2018-05-25T08:46:47.581Z,7.40
2018-05-25T08:49:15.354Z,8.80
2018-05-25T08:51:43.067Z,8.60
2018-05-25T08:54:10.800Z,8.50
2018-05-25T08:56:38.510Z,8.67
2018-05-25T08:59:07.017Z,8.37
2018-05-25T09:01:34.725Z,7.87
2018-05-25T09:04:02.466Z,8.43
2018-05-25T09:06:30.185Z,9.10
2018-05-25T09:08:58.784Z,9.23
2018-05-25T09:11:27.254Z,8.57
2018-05-25T09:13:55.727Z,8.93
2018-05-25T09:16:23.452Z,9.03
2018-05-25T09:18:51.180Z,8.50
2018-05-25T09:21:19.041Z,8.57
2018-05-25T09:23:47.512Z,8.57
2018-05-25T09:26:15.986Z,9.77
2018-05-25T09:28:43.727Z,8.57
2018-05-25T09:31:11.444Z,9.47
2018-05-25T09:33:39.180Z,8.97
2018-05-25T09:36:06.870Z,8.73
2018-05-25T09:38:34.598Z,9.20
2018-05-25T09:41:02.303Z,8.20
2018-05-25T09:43:30.075Z,9.67
2018-05-25T09:45:57.795Z,7.73
2018-05-25T09:48:25.546Z,8.47
2018-05-25T09:50:53.256Z,8.57
2018-05-25T09:53:21.120Z,9.17
2018-05-25T09:55:48.834Z,8.63
2018-05-25T09:58:16.552Z,9.07
2018-05-25T10:00:45.204Z,9.80
2018-05-25T10:03:12.956Z,9.67
2018-05-25T10:05:41.500Z,9.30
2018-05-25T10:08:09.235Z,10.20
2018-05-25T10:10:37.784Z,9.17
2018-05-25T10:13:05.542Z,8.80
2018-05-25T10:15:56.184Z,9.47
2018-05-25T10:18:27.488Z,10.00
2018-05-25T10:21:16.560Z,9.47
2018-05-25T10:26:47.003Z,9.57
2018-05-25T10:29:31.509Z,9.80
2018-05-25T10:32:21.182Z,11.40
2018-05-25T10:34:57.374Z,9.57
2018-05-25T10:37:25.208Z,8.83
2018-05-25T10:39:52.944Z,10.80
2018-05-25T10:42:21.474Z,10.63
2018-05-25T10:44:49.243Z,10.33
2018-05-25T10:47:16.928Z,9.80
2018-05-25T10:49:44.707Z,11.23
2018-05-25T10:52:12.546Z,10.53
2018-05-25T10:54:40.259Z,10.13
2018-05-25T10:57:13.867Z,9.40
2018-05-25T10:59:43.453Z,10.37
2018-05-25T11:02:17.720Z,8.80
2018-05-25T11:04:50.247Z,9.83
2018-05-25T11:07:22.953Z,7.80
2018-05-25T11:09:58.147Z,9.73
2018-05-25T11:12:29.829Z,7.93
2018-05-25T11:15:01.105Z,7.53
2018-05-25T11:17:35.070Z,7.53
2018-05-25T11:20:10.431Z,6.30
2018-05-25T11:22:43.353Z,7.23
2018-05-25T11:25:16.426Z,6.67
2018-05-25T11:27:52.651Z,7.43
2018-05-25T11:30:23.566Z,8.33
2018-05-25T11:32:53.913Z,7.10
2018-05-25T11:35:24.607Z,6.17
2018-05-25T11:38:01.893Z,7.40
2018-05-25T11:40:31.051Z,7.27
2018-05-25T11:42:59.121Z,8.23
2018-05-25T11:45:28.679Z,8.60
2018-05-25T11:47:59.044Z,6.87
2018-05-25T11:50:27.720Z,7.57
2018-05-25T13:11:59.464Z,7.93
2018-05-25T13:14:27.941Z,7.07
2018-05-25T13:16:56.545Z,6.83
2018-05-25T13:19:24.230Z,7.60
2018-05-25T13:21:51.922Z,8.23
2018-05-25T13:24:19.661Z,7.87
2018-05-25T13:26:47.384Z,9.20
2018-05-25T13:29:15.923Z,6.83
2018-05-25T13:31:43.639Z,8.40
2018-05-25T13:34:11.346Z,8.10
2018-05-25T13:36:39.079Z,8.97
2018-05-25T13:39:07.927Z,7.77
2018-05-25T13:41:36.431Z,8.20
2018-05-25T13:44:04.314Z,6.77
2018-05-25T13:46:37.124Z,7.10
2018-05-25T13:49:05.482Z,7.80
2018-05-25T13:51:33.193Z,8.20
2018-05-25T13:54:01.686Z,6.90
2018-05-25T13:56:30.221Z,6.50
2018-05-25T13:58:57.970Z,7.20
2018-05-25T14:01:25.731Z,6.90
2018-05-25T14:03:53.476Z,6.80
2018-05-25T14:06:21.900Z,6.57
2018-05-25T14:08:50.888Z,5.77
2018-05-25T14:11:19.770Z,5.10
2018-05-25T14:13:47.719Z,4.30
2018-05-25T14:16:15.567Z,5.37
2018-05-25T14:18:43.820Z,5.03
2018-05-25T14:21:12.316Z,5.27
2018-05-25T14:23:40.036Z,5.10
2018-05-25T14:26:08.235Z,4.77
2018-05-25T14:28:36.721Z,4.60
2018-05-25T14:31:05.238Z,4.70
2018-05-25T14:33:33.037Z,5.07
2018-05-25T14:36:00.740Z,4.43
2018-05-25T14:38:28.905Z,4.40
2018-05-25T14:40:56.613Z,5.67
2018-05-25T14:43:24.361Z,5.00
2018-05-25T14:45:52.167Z,6.07
2018-05-25T14:48:20.702Z,4.80
2018-05-25T14:50:48.499Z,5.30
2018-05-25T14:53:16.277Z,6.20
2018-05-25T14:55:44.066Z,5.97
2018-05-25T14:58:12.611Z,5.33
2018-05-25T15:00:40.303Z,5.57
2018-05-25T15:03:08.809Z,5.03
2018-05-25T15:05:36.872Z,6.30
2018-05-25T15:08:05.306Z,6.07
2018-05-25T15:10:33.158Z,5.40
2018-05-25T15:13:10.954Z,5.80
2018-05-25T15:15:40.295Z,5.63
2018-05-25T15:18:08.802Z,6.30
2018-05-25T15:20:36.549Z,6.30
2018-05-25T15:23:04.325Z,4.87
2018-05-25T15:25:33.001Z,5.57
2018-05-25T15:28:00.765Z,5.17
2018-05-25T15:30:28.493Z,5.43
2018-05-25T15:32:56.255Z,6.10
2018-05-25T15:35:24.961Z,5.53
2018-05-25T15:37:53.439Z,6.03
2018-05-25T15:40:21.919Z,5.83
2018-05-25T15:42:50.440Z,6.40
2018-05-25T15:45:18.165Z,6.97
2018-05-25T15:47:46.670Z,7.87
2018-05-25T15:50:14.629Z,7.57
2018-05-25T15:52:42.475Z,7.13
2018-05-25T15:55:11.037Z,7.00
2018-05-25T15:57:38.995Z,6.73
2018-05-25T16:00:09.151Z,7.40
2018-05-25T16:02:36.975Z,6.80
2018-05-25T16:05:04.749Z,7.80
2018-05-25T16:07:32.560Z,7.77
2018-05-25T16:10:00.295Z,8.60
2018-05-25T16:12:29.267Z,6.80
2018-05-25T16:14:57.011Z,7.70
2018-05-25T16:17:24.870Z,7.80
2018-05-25T16:19:52.671Z,7.57
2018-05-25T16:22:20.376Z,7.63
2018-05-25T16:24:48.130Z,8.10
2018-05-25T16:27:16.075Z,7.73
2018-05-25T16:29:44.637Z,8.30
2018-05-25T16:32:12.426Z,8.63
2018-05-25T16:34:40.904Z,7.40
2018-05-25T16:37:09.417Z,8.00
2018-05-25T16:39:37.153Z,8.67
2018-05-25T16:42:05.801Z,8.70
2018-05-25T16:44:34.296Z,8.90
2018-05-25T16:47:02.059Z,9.10
2018-05-25T16:49:29.806Z,7.37
2018-05-25T16:51:57.517Z,6.23
2018-05-25T16:54:25.255Z,4.90
2018-05-25T16:56:53.731Z,5.13
2018-05-25T16:59:22.369Z,4.93
2018-05-25T17:01:50.020Z,5.20
2018-05-25T17:04:17.748Z,5.00
2018-05-25T17:06:45.487Z,5.23
2018-05-25T17:09:14.719Z,4.40
2018-05-25T17:11:43.316Z,4.83
2018-05-25T17:14:11.020Z,4.23
2018-05-25T17:16:38.739Z,4.80
2018-05-25T17:19:06.582Z,5.33
2018-05-25T17:21:35.066Z,4.80
2018-05-25T17:24:05.231Z,4.57
2018-05-25T17:26:36.795Z,5.30
2018-05-25T17:29:07.023Z,4.80
2018-05-25T17:31:36.247Z,5.63
2018-05-25T17:34:08.784Z,5.10
2018-05-25T17:36:36.697Z,4.60
2018-05-25T17:39:07.804Z,5.40
2018-05-25T17:41:35.517Z,5.07
2018-05-25T17:44:03.296Z,4.70
2018-05-25T17:46:31.282Z,5.83
2018-05-25T17:48:59.060Z,5.40
2018-05-25T17:51:30.229Z,5.27
2018-05-25T17:54:03.433Z,5.07
2018-05-25T17:56:31.909Z,5.20
2018-05-25T17:59:05.108Z,5.90
2018-05-25T18:01:33.590Z,6.10
2018-05-25T18:04:02.100Z,5.80
2018-05-25T18:06:29.866Z,5.40
2018-05-25T18:08:59.783Z,5.77
2018-05-25T18:11:28.347Z,5.83
2018-05-25T18:13:57.001Z,5.73
2018-05-25T18:16:27.281Z,5.93
2018-05-25T18:18:55.589Z,6.40
2018-05-25T18:21:23.380Z,5.20
2018-05-25T18:23:53.714Z,5.80
2018-05-25T18:26:21.440Z,6.97
2018-05-25T18:28:49.924Z,6.47
2018-05-25T18:31:18.420Z,5.93
2018-05-25T18:33:46.996Z,6.67
2018-05-25T18:36:15.492Z,6.33
2018-05-25T18:38:44.019Z,5.77
2018-05-25T18:41:11.745Z,7.10
2018-05-25T18:43:39.460Z,5.97
2018-05-25T18:46:07.670Z,5.90
2018-05-25T18:48:35.409Z,5.70
2018-05-25T18:51:03.112Z,6.17
2018-05-25T18:53:31.347Z,6.10
2018-05-25T18:55:59.293Z,7.30
2018-05-25T18:58:27.086Z,6.00
2018-05-25T19:00:54.803Z,5.43
2018-05-25T19:03:22.579Z,5.87
2018-05-25T19:05:50.320Z,5.83
2018-05-25T19:08:21.725Z,6.40
2018-05-25T19:10:50.194Z,6.23
2018-05-25T19:13:17.892Z,6.20
2018-05-25T19:15:45.630Z,6.47
2018-05-25T19:18:14.089Z,5.93
2018-05-25T19:20:41.803Z,5.93
2018-05-25T19:23:09.499Z,5.70
2018-05-25T19:25:37.276Z,6.20
2018-05-25T19:28:04.989Z,6.30
2018-05-25T19:30:32.727Z,6.33
2018-05-25T19:33:01.284Z,5.50
2018-05-25T19:35:29.102Z,6.83
2018-05-25T19:37:56.947Z,7.03
2018-05-25T19:40:24.707Z,6.40
2018-05-25T19:42:53.183Z,6.07
2018-05-25T19:45:21.728Z,6.47
2018-05-25T19:47:50.253Z,6.83
2018-05-25T19:50:18.026Z,7.27
2018-05-25T19:52:45.730Z,6.60
2018-05-25T19:55:13.479Z,6.17
2018-05-25T19:57:41.255Z,7.67
2018-05-25T20:00:09.165Z,7.60
2018-05-25T20:02:38.870Z,6.30
2018-05-25T20:05:09.835Z,7.10
2018-05-25T20:07:40.062Z,7.43
2018-05-25T20:10:13.053Z,7.60
2018-05-25T20:12:42.239Z,7.90
2018-05-25T20:15:11.138Z,7.57
2018-05-25T20:17:38.858Z,8.47
2018-05-25T20:20:07.516Z,8.20
2018-05-25T20:22:35.896Z,7.70
2018-05-25T20:25:03.678Z,7.80
2018-05-25T20:27:32.039Z,7.50
2018-05-25T20:30:00.659Z,7.30
2018-05-25T20:32:30.847Z,7.37
2018-05-25T20:34:58.690Z,7.03
2018-05-25T20:37:26.435Z,7.50
2018-05-25T20:39:54.130Z,7.60
2018-05-25T20:42:22.017Z,8.07
2018-05-25T20:44:55.152Z,8.20
2018-05-25T20:47:23.186Z,8.97
2018-05-25T20:49:51.678Z,8.47
2018-05-25T20:52:20.899Z,8.90
2018-05-25T20:54:49.385Z,8.97
2018-05-25T20:57:17.180Z,8.17
2018-05-25T20:59:45.035Z,10.00
2018-05-25T21:02:13.794Z,9.63
2018-05-25T21:04:41.523Z,8.83
2018-05-25T21:07:10.017Z,8.60
2018-05-25T21:09:38.473Z,9.63
2018-05-25T21:12:06.285Z,9.17
2018-05-25T21:14:34.437Z,10.30
2018-05-25T21:17:02.888Z,9.80
2018-05-25T21:19:33.205Z,9.17
2018-05-25T21:22:02.287Z,11.33
2018-05-25T21:24:30.060Z,12.50
2018-05-25T21:26:57.766Z,11.07
2018-05-25T21:29:25.628Z,11.53
2018-05-25T21:31:53.366Z,11.97
2018-05-25T21:34:29.546Z,13.37
2018-05-25T21:36:59.481Z,12.63
2018-05-25T21:39:27.345Z,12.73
2018-05-25T21:41:56.001Z,11.70
2018-05-25T21:44:24.546Z,13.77
2018-05-25T21:46:52.457Z,12.47
2018-05-25T21:49:21.719Z,16.00
2018-05-25T21:51:50.275Z,14.30
2018-05-25T21:54:18.611Z,15.10
2018-05-25T21:56:47.084Z,13.10
2018-05-25T21:59:15.556Z,13.17
2018-05-25T22:01:44.214Z,14.20
2018-05-25T22:04:12.148Z,15.17
2018-05-25T22:06:39.884Z,15.60
2018-05-25T22:09:08.375Z,15.20
2018-05-25T22:11:36.116Z,15.03
2018-05-25T22:14:06.845Z,14.70
2018-05-25T22:16:34.783Z,15.50
2018-05-25T22:19:03.401Z,14.57
2018-05-25T22:21:31.928Z,15.80
2018-05-25T22:23:59.645Z,15.50
2018-05-25T22:26:28.145Z,15.20
2018-05-25T22:28:55.850Z,16.07
2018-05-25T22:31:23.607Z,15.40
2018-05-25T22:33:51.316Z,14.10
2018-05-25T22:36:19.861Z,15.37
2018-05-25T22:38:47.588Z,15.10
2018-05-25T22:41:15.287Z,14.50
2018-05-25T22:43:54.920Z,14.83
2018-05-25T22:46:34.662Z,14.00
2018-05-25T22:49:14.652Z,13.70
2018-05-25T22:51:54.966Z,13.50
2018-05-25T22:54:36.004Z,12.23
2018-05-25T22:57:03.757Z,12.07
2018-05-25T22:59:32.240Z,10.83
2018-05-25T23:02:00.000Z,10.60
2018-05-25T23:04:28.506Z,10.50
2018-05-25T23:06:56.273Z,9.97
2018-05-25T23:09:23.995Z,9.10
2018-05-25T23:11:52.471Z,9.40
2018-05-25T23:14:20.975Z,7.87
2018-05-25T23:16:48.687Z,7.43
2018-05-25T23:19:16.793Z,7.07
2018-05-25T23:21:45.276Z,7.33
2018-05-25T23:24:13.751Z,6.57
2018-05-25T23:26:42.259Z,6.77
2018-05-25T23:29:09.975Z,7.43
2018-05-25T23:31:38.139Z,7.07
2018-05-25T23:34:05.837Z,5.73
2018-05-25T23:36:34.303Z,5.53
2018-05-25T23:39:02.803Z,4.87
2018-05-25T23:41:31.319Z,4.33
2018-05-25T23:43:59.024Z,4.83
2018-05-25T23:46:27.484Z,4.20
2018-05-25T23:48:55.681Z,4.00
2018-05-25T23:51:24.151Z,3.90
2018-05-25T23:53:52.106Z,4.10
2018-05-25T23:56:19.841Z,3.67
2018-05-25T23:58:47.583Z,3.63
